Time;durP1;ratioP1;P1;durP2;ratioP2;P2;SDS_P1;SDS_P2;PMS_P1;PMS_P2;Temp;Humidity;BMP_temperature;BMP_pressure;BME280_temperature;BME280_humidity;BME280_pressure;Samples;Min_cycle;Max_cycle;Signal;HPM_P1;HPM_P2
2024/04/06 00:02:18;;;;;;;7.90;2.63;;;;;;;;;;4883654;29;20263;-94
2024/04/06 00:05:24;;;;;;;10.07;2.63;;;;;;;;;;4894535;29;20185;-95
2024/04/06 00:08:30;;;;;;;7.30;2.40;;;;;;;;;;4894480;29;20212;-94
2024/04/06 00:11:35;;;;;;;5.05;2.30;;;;;;;;;;4894952;29;20202;-94
2024/04/06 00:14:40;;;;;;;5.82;2.60;;;;;;;;;;4893476;29;20251;-93
2024/04/06 00:17:45;;;;;;;7.72;2.67;;;;;;;;;;4895890;29;20193;-92
2024/04/06 00:20:51;;;;;;;7.68;2.40;;;;;;;;;;4894299;29;20578;-94
2024/04/06 00:23:57;;;;;;;6.05;2.88;;;;;;;;;;4894366;29;20193;-93
2024/04/06 00:27:02;;;;;;;7.53;2.40;;;;;;;;;;4894388;29;20209;-91
2024/04/06 00:30:09;;;;;;;7.40;2.30;;;;;;;;;;4882735;29;20262;-93
2024/04/06 00:33:18;;;;;;;12.30;2.50;;;;;;;;;;4892587;29;20206;-94
2024/04/06 00:36:24;;;;;;;6.88;2.50;;;;;;;;;;4894101;29;20193;-93
2024/04/06 00:39:30;;;;;;;8.23;2.70;;;;;;;;;;4896919;29;20201;-92
2024/04/06 00:42:36;;;;;;;5.75;2.40;;;;;;;;;;4881571;29;20229;-93
2024/04/06 00:45:40;;;;;;;6.78;2.50;;;;;;;;;;4893168;29;20574;-94
2024/04/06 00:48:46;;;;;;;7.72;2.60;;;;;;;;;;4893355;29;20282;-93
2024/04/06 00:51:52;;;;;;;9.52;2.60;;;;;;;;;;4893235;29;20189;-95
2024/04/06 00:55:00;;;;;;;9.52;2.60;;;;;;;;;;4892729;29;20214;-95
2024/04/06 00:58:04;;;;;;;7.40;2.42;;;;;;;;;;4892420;29;20231;-93
2024/04/06 01:01:09;;;;;;;9.02;2.38;;;;;;;;;;4882468;29;20262;-95
2024/04/06 01:04:13;;;;;;;11.23;3.20;;;;;;;;;;4891491;29;20214;-95
2024/04/06 01:07:20;;;;;;;10.70;2.92;;;;;;;;;;4892752;29;20177;-94
2024/04/06 01:10:26;;;;;;;9.20;2.40;;;;;;;;;;4896792;29;20202;-92
2024/04/06 01:13:30;;;;;;;9.48;2.50;;;;;;;;;;4884882;29;20201;-92
2024/04/06 01:16:35;;;;;;;5.65;2.25;;;;;;;;;;4895409;29;20218;-93
2024/04/06 01:19:40;;;;;;;8.00;2.95;;;;;;;;;;4894431;29;20235;-91
2024/04/06 01:22:47;;;;;;;4.22;2.30;;;;;;;;;;4884554;29;20224;-94
2024/04/06 01:25:54;;;;;;;9.35;2.88;;;;;;;;;;4895958;29;20190;-93
2024/04/06 01:28:58;;;;;;;8.13;2.78;;;;;;;;;;4894919;29;20671;-93
2024/04/06 01:32:04;;;;;;;7.03;2.47;;;;;;;;;;4883117;29;20201;-93
2024/04/06 01:35:08;;;;;;;7.70;2.55;;;;;;;;;;4895324;29;20199;-93
2024/04/06 01:38:13;;;;;;;8.05;2.30;;;;;;;;;;4882792;29;20255;-93
2024/04/06 01:41:19;;;;;;;8.98;2.40;;;;;;;;;;4893744;29;20277;-94
2024/04/06 01:44:24;;;;;;;9.45;2.60;;;;;;;;;;4892653;29;20218;-93
2024/04/06 01:47:29;;;;;;;7.72;2.72;;;;;;;;;;4892803;29;20211;-94
2024/04/06 01:50:34;;;;;;;6.53;2.58;;;;;;;;;;4893753;29;20209;-94
2024/04/06 01:53:38;;;;;;;6.18;2.38;;;;;;;;;;4892674;29;20197;-93
2024/04/06 01:56:45;;;;;;;8.57;2.78;;;;;;;;;;4882498;29;20207;-91
2024/04/06 01:59:49;;;;;;;10.90;2.50;;;;;;;;;;4882275;29;20194;-94
2024/04/06 02:02:55;;;;;;;6.97;2.60;;;;;;;;;;4881267;29;20217;-91
2024/04/06 02:06:00;;;;;;;16.48;2.50;;;;;;;;;;4892756;29;20202;-93
2024/04/06 02:09:05;;;;;;;8.75;2.42;;;;;;;;;;4898096;29;20189;-92
2024/04/06 02:12:11;;;;;;;6.13;2.63;;;;;;;;;;4894203;29;20202;-91
2024/04/06 02:15:17;;;;;;;7.45;2.60;;;;;;;;;;4892819;29;20267;-90
2024/04/06 02:18:21;;;;;;;7.20;2.70;;;;;;;;;;4892493;29;20186;-94
2024/04/06 02:21:26;;;;;;;8.52;2.90;;;;;;;;;;4883613;29;20220;-92
2024/04/06 02:24:30;;;;;;;8.05;2.90;;;;;;;;;;4894381;29;20201;-94
2024/04/06 02:27:37;;;;;;;5.20;2.60;;;;;;;;;;4884138;29;20194;-93
2024/04/06 02:30:41;;;;;;;6.35;2.75;;;;;;;;;;4881795;29;20202;-92
2024/04/06 02:33:46;;;;;;;7.63;2.72;;;;;;;;;;4893366;29;20196;-92
2024/04/06 02:36:50;;;;;;;10.25;2.40;;;;;;;;;;4894334;29;20275;-93
2024/04/06 02:39:55;;;;;;;8.05;2.90;;;;;;;;;;4894538;29;20194;-94
2024/04/06 02:43:01;;;;;;;5.70;2.67;;;;;;;;;;4892484;29;20321;-93
2024/04/06 02:46:06;;;;;;;8.57;2.92;;;;;;;;;;4884901;29;20181;-92
2024/04/06 02:49:12;;;;;;;6.47;2.92;;;;;;;;;;4897087;29;20186;-94
2024/04/06 02:52:21;;;;;;;10.90;2.67;;;;;;;;;;4885754;29;20274;-92
2024/04/06 02:55:28;;;;;;;9.15;2.60;;;;;;;;;;4897094;29;20198;-94
2024/04/06 02:58:35;;;;;;;11.63;2.55;;;;;;;;;;4874296;29;20266;-94
2024/04/06 03:01:40;;;;;;;6.25;2.55;;;;;;;;;;4895399;29;20237;-93
2024/04/06 03:04:45;;;;;;;5.20;2.60;;;;;;;;;;4897392;29;20201;-93
2024/04/06 03:07:50;;;;;;;5.95;2.70;;;;;;;;;;4885755;29;20355;-93
2024/04/06 03:10:55;;;;;;;7.55;2.45;;;;;;;;;;4897774;29;20201;-94
2024/04/06 03:14:02;;;;;;;7.35;2.65;;;;;;;;;;4896255;29;20274;-93
2024/04/06 03:17:06;;;;;;;6.03;2.35;;;;;;;;;;4896687;29;20235;-94
2024/04/06 03:20:11;;;;;;;7.45;2.22;;;;;;;;;;4897093;29;20202;-94
2024/04/06 03:23:15;;;;;;;6.18;2.20;;;;;;;;;;4896836;29;20300;-93
2024/04/06 03:26:21;;;;;;;4.72;2.13;;;;;;;;;;4886382;29;20592;-92
2024/04/06 03:29:27;;;;;;;13.80;2.50;;;;;;;;;;4896438;29;20201;-94
2024/04/06 03:32:31;;;;;;;7.07;2.10;;;;;;;;;;4896094;29;20197;-93
2024/04/06 03:35:37;;;;;;;9.30;2.38;;;;;;;;;;4885437;29;20197;-95
2024/04/06 03:38:43;;;;;;;8.88;2.72;;;;;;;;;;4896441;29;20266;-94
2024/04/06 03:41:52;;;;;;;8.07;2.40;;;;;;;;;;4896177;29;20214;-93
2024/04/06 03:44:59;;;;;;;9.63;2.60;;;;;;;;;;4895089;29;20181;-93
2024/04/06 03:48:03;;;;;;;6.68;2.40;;;;;;;;;;4896212;29;20178;-92
2024/04/06 03:51:09;;;;;;;9.38;2.40;;;;;;;;;;4896809;29;20205;-91
2024/04/06 03:54:12;;;;;;;6.70;2.50;;;;;;;;;;4896579;29;20227;-92
2024/04/06 03:57:17;;;;;;;8.10;2.60;;;;;;;;;;4895639;29;20201;-92
2024/04/06 04:00:24;;;;;;;7.63;2.45;;;;;;;;;;4896155;29;20527;-93
2024/04/06 04:03:28;;;;;;;7.70;2.75;;;;;;;;;;4895439;29;20229;-93
2024/04/06 04:06:34;;;;;;;8.13;2.65;;;;;;;;;;4895517;29;20220;-92
2024/04/06 04:09:39;;;;;;;8.77;2.90;;;;;;;;;;4894888;29;20202;-93
2024/04/06 04:12:44;;;;;;;3.85;2.55;;;;;;;;;;4894757;29;20202;-93
2024/04/06 04:15:51;;;;;;;11.65;2.72;;;;;;;;;;4884446;29;20232;-93
2024/04/06 04:18:55;;;;;;;8.30;3.08;;;;;;;;;;4874269;29;20191;-93
2024/04/06 04:22:00;;;;;;;6.32;2.70;;;;;;;;;;4896034;29;20225;-94
2024/04/06 04:25:04;;;;;;;5.75;2.65;;;;;;;;;;4897598;29;20174;-93
2024/04/06 04:28:10;;;;;;;5.47;2.67;;;;;;;;;;4886154;29;20674;-95
2024/04/06 04:31:17;;;;;;;7.30;3.22;;;;;;;;;;4885727;29;20211;-94
2024/04/06 04:34:21;;;;;;;5.88;2.60;;;;;;;;;;4895135;29;20198;-93
2024/04/06 04:37:27;;;;;;;6.90;2.95;;;;;;;;;;4884505;29;20231;-94
2024/04/06 04:40:30;;;;;;;13.13;3.80;;;;;;;;;;4887191;29;20193;-95
2024/04/06 04:43:36;;;;;;;8.40;3.45;;;;;;;;;;4893597;29;20247;-93
2024/04/06 04:46:44;;;;;;;5.35;2.33;;;;;;;;;;4872705;29;20194;-95
2024/04/06 04:49:48;;;;;;;6.80;2.28;;;;;;;;;;4893673;29;20544;-94
2024/04/06 04:52:55;;;;;;;3.60;2.25;;;;;;;;;;4895460;29;20578;-93
2024/04/06 04:55:59;;;;;;;5.03;2.47;;;;;;;;;;4883823;29;20677;-93
2024/04/06 04:59:04;;;;;;;5.43;2.65;;;;;;;;;;4893369;29;20194;-94
2024/04/06 05:02:10;;;;;;;9.95;2.35;;;;;;;;;;4894965;29;20237;-93
2024/04/06 05:05:15;;;;;;;8.20;2.45;;;;;;;;;;4894899;29;20198;-95
2024/04/06 05:08:19;;;;;;;8.75;2.30;;;;;;;;;;4883277;29;20202;-93
2024/04/06 05:11:25;;;;;;;12.48;2.65;;;;;;;;;;4895614;29;20202;-93
2024/04/06 05:14:30;;;;;;;8.13;2.60;;;;;;;;;;4884318;29;20189;-93
2024/04/06 05:17:37;;;;;;;3.83;2.40;;;;;;;;;;4895459;29;20198;-95
2024/04/06 05:20:50;;;;;;;8.63;2.83;;;;;;;;;;4894933;29;20222;-92
2024/04/06 05:23:54;;;;;;;8.07;3.00;;;;;;;;;;4882273;29;20305;-94
2024/04/06 05:27:01;;;;;;;6.05;2.88;;;;;;;;;;4893381;29;20193;-94
2024/04/06 05:30:06;;;;;;;5.68;2.95;;;;;;;;;;4892965;29;20206;-94
2024/04/06 05:33:12;;;;;;;8.60;3.17;;;;;;;;;;4893513;29;20201;-93
2024/04/06 05:36:18;;;;;;;11.05;3.25;;;;;;;;;;4892800;29;20319;-94
2024/04/06 05:39:22;;;;;;;7.10;2.80;;;;;;;;;;4893447;29;20302;-96
2024/04/06 05:42:27;;;;;;;7.18;2.78;;;;;;;;;;4893686;29;20221;-92
2024/04/06 05:45:31;;;;;;;4.22;2.33;;;;;;;;;;4894385;29;20618;-94
2024/04/06 05:48:39;;;;;;;4.82;2.28;;;;;;;;;;4883939;29;20221;-95
2024/04/06 05:51:43;;;;;;;6.38;2.28;;;;;;;;;;4883499;29;20213;-93
2024/04/06 05:54:48;;;;;;;5.97;2.42;;;;;;;;;;4882795;29;20245;-95
2024/04/06 05:57:52;;;;;;;7.38;2.45;;;;;;;;;;4882936;29;20203;-94
2024/04/06 06:01:01;;;;;;;8.13;2.20;;;;;;;;;;4882067;29;20224;-93
2024/04/06 06:04:07;;;;;;;9.02;2.47;;;;;;;;;;4892573;29;20230;-93
2024/04/06 06:07:13;;;;;;;4.28;2.10;;;;;;;;;;4882248;29;20201;-95
2024/04/06 06:10:18;;;;;;;6.78;2.42;;;;;;;;;;4893172;29;20198;-96
2024/04/06 06:13:23;;;;;;;6.07;2.03;;;;;;;;;;4892477;29;20201;-95
2024/04/06 06:16:29;;;;;;;3.10;2.08;;;;;;;;;;4891863;29;20186;-94
2024/04/06 06:19:35;;;;;;;6.47;2.05;;;;;;;;;;4893320;29;20210;-95
2024/04/06 06:22:43;;;;;;;9.57;2.10;;;;;;;;;;4871521;29;20218;-91
2024/04/06 06:25:48;;;;;;;4.30;2.10;;;;;;;;;;4891940;29;20202;-91
2024/04/06 06:28:53;;;;;;;6.03;2.28;;;;;;;;;;4893626;29;20318;-93
2024/04/06 06:31:58;;;;;;;5.13;2.00;;;;;;;;;;4894010;29;20218;-93
2024/04/06 06:35:04;;;;;;;6.43;2.10;;;;;;;;;;4871070;29;20594;-95
2024/04/06 06:38:09;;;;;;;7.47;2.00;;;;;;;;;;4872092;29;20201;-91
2024/04/06 06:41:13;;;;;;;8.13;2.03;;;;;;;;;;4893087;29;20278;-91
2024/04/06 06:44:19;;;;;;;4.43;1.95;;;;;;;;;;4892736;29;20588;-92
2024/04/06 06:47:24;;;;;;;3.55;1.73;;;;;;;;;;4873670;29;20202;-94
2024/04/06 06:50:31;;;;;;;9.70;2.08;;;;;;;;;;4882282;29;20198;-92
2024/04/06 06:53:36;;;;;;;4.65;1.85;;;;;;;;;;4892960;29;20324;-93
2024/04/06 06:56:41;;;;;;;3.35;1.98;;;;;;;;;;4894081;29;20200;-93
2024/04/06 06:59:47;;;;;;;4.20;1.83;;;;;;;;;;4882225;29;20212;-93
2024/04/06 07:02:51;;;;;;;6.55;1.90;;;;;;;;;;4892525;29;20364;-96
2024/04/06 07:05:58;;;;;;;3.50;1.98;;;;;;;;;;4894046;29;20194;-94
2024/04/06 07:09:05;;;;;;;5.05;2.10;;;;;;;;;;4891621;29;20324;-93
2024/04/06 07:12:09;;;;;;;4.18;1.80;;;;;;;;;;4892629;29;20182;-92
2024/04/06 07:15:15;;;;;;;6.90;2.33;;;;;;;;;;4881635;29;20299;-95
2024/04/06 07:18:19;;;;;;;4.68;2.05;;;;;;;;;;4886074;29;20281;-94
2024/04/06 07:21:27;;;;;;;7.15;2.47;;;;;;;;;;4882120;29;20235;-95
2024/04/06 07:24:32;;;;;;;3.75;2.20;;;;;;;;;;4892586;29;20197;-94
2024/04/06 07:27:46;;;;;;;7.43;2.20;;;;;;;;;;4872301;29;20194;-93
2024/04/06 07:30:50;;;;;;;5.78;2.40;;;;;;;;;;4894753;29;20273;-94
2024/04/06 07:33:56;;;;;;;5.43;2.33;;;;;;;;;;4885670;29;20226;-94
2024/04/06 07:37:03;;;;;;;9.05;2.50;;;;;;;;;;4899042;29;20692;-94
2024/04/06 07:40:08;;;;;;;5.72;2.40;;;;;;;;;;4898143;29;20186;-94
2024/04/06 07:43:14;;;;;;;5.43;2.10;;;;;;;;;;4876928;29;20221;-93
2024/04/06 07:46:21;;;;;;;3.47;2.13;;;;;;;;;;4889122;29;20185;-93
2024/04/06 07:49:28;;;;;;;6.82;2.40;;;;;;;;;;4901743;29;20654;-93
2024/04/06 07:52:36;;;;;;;4.78;2.28;;;;;;;;;;4878415;29;20270;-95
2024/04/06 07:55:41;;;;;;;3.83;2.05;;;;;;;;;;4875109;29;20186;-94
2024/04/06 07:58:47;;;;;;;5.22;1.85;;;;;;;;;;4897455;29;20544;-94
2024/04/06 08:01:52;;;;;;;7.05;2.10;;;;;;;;;;4896165;29;20304;-93
2024/04/06 08:04:57;;;;;;;4.88;1.90;;;;;;;;;;4897470;29;20198;-93
2024/04/06 08:08:08;;;;;;;8.93;1.75;;;;;;;;;;4885377;29;20270;-94
2024/04/06 08:11:13;;;;;;;8.63;1.90;;;;;;;;;;4898459;29;20201;-92
2024/04/06 08:14:18;;;;;;;8.43;2.10;;;;;;;;;;4897837;29;20273;-94
2024/04/06 08:17:23;;;;;;;11.00;2.45;;;;;;;;;;4899610;29;20182;-96
2024/04/06 08:23:51;;;;;;;7.10;2.20;;;;;;;;;;4876239;29;20221;-93
2024/04/06 08:26:55;;;;;;;4.90;2.30;;;;;;;;;;4897998;29;20190;-95
2024/04/06 08:30:01;;;;;;;4.38;2.10;;;;;;;;;;4897995;29;20209;-94
2024/04/06 08:33:05;;;;;;;5.93;2.30;;;;;;;;;;4897477;29;20193;-96
2024/04/06 08:36:11;;;;;;;3.28;1.92;;;;;;;;;;4897432;29;20193;-94
2024/04/06 08:39:17;;;;;;;7.90;2.10;;;;;;;;;;4884991;29;20198;-93
2024/04/06 08:42:23;;;;;;;6.65;2.00;;;;;;;;;;4898649;29;20198;-93
2024/04/06 08:45:28;;;;;;;5.53;2.38;;;;;;;;;;4886758;29;20202;-93
2024/04/06 08:48:38;;;;;;;7.97;3.85;;;;;;;;;;4899021;29;20238;-93
2024/04/06 08:51:46;;;;;;;3.25;1.80;;;;;;;;;;4876974;29;20173;-94
2024/04/06 08:54:52;;;;;;;6.55;1.92;;;;;;;;;;4888229;29;20301;-94
2024/04/06 08:57:58;;;;;;;3.80;1.70;;;;;;;;;;4888844;29;20194;-94
2024/04/06 09:01:03;;;;;;;6.40;1.92;;;;;;;;;;4898744;29;20313;-94
2024/04/06 09:04:08;;;;;;;5.25;1.77;;;;;;;;;;4899581;29;20260;-96
2024/04/06 09:07:13;;;;;;;6.88;1.80;;;;;;;;;;4889191;29;20193;-96
2024/04/06 09:10:27;;;;;;;4.82;2.08;;;;;;;;;;4887757;29;20189;-95
2024/04/06 09:13:33;;;;;;;3.95;1.70;;;;;;;;;;4896966;29;20198;-94
2024/04/06 09:16:41;;;;;;;5.07;1.65;;;;;;;;;;4876342;29;20190;-94
2024/04/06 09:19:46;;;;;;;4.45;1.65;;;;;;;;;;4899951;29;20227;-93
2024/04/06 09:22:55;;;;;;;4.30;1.25;;;;;;;;;;4887592;29;20220;-93
2024/04/06 22:01:24;;;;;;;7.57;3.10;;;;;;;;;;5402781;23;20260;-94
2024/04/06 22:04:30;;;;;;;6.03;3.10;;;;;;;;;;4893898;29;20758;-94
2024/04/06 22:07:36;;;;;;;7.55;3.08;;;;;;;;;;4895270;29;20224;-94
2024/04/06 22:10:40;;;;;;;6.22;2.78;;;;;;;;;;4894389;29;20230;-92
2024/04/06 22:13:47;;;;;;;8.73;3.13;;;;;;;;;;4892716;29;20205;-95
2024/04/06 22:16:55;;;;;;;7.85;3.03;;;;;;;;;;4894089;29;20283;-94
2024/04/06 22:20:02;;;;;;;8.70;2.60;;;;;;;;;;4897926;29;20505;-91
2024/04/06 22:23:13;;;;;;;8.80;3.05;;;;;;;;;;4895762;29;20192;-92
2024/04/06 22:26:20;;;;;;;8.77;2.90;;;;;;;;;;4893802;29;20222;-94
2024/04/06 22:29:24;;;;;;;5.80;2.85;;;;;;;;;;4894896;29;20250;-94
2024/04/06 22:32:33;;;;;;;7.78;2.67;;;;;;;;;;4894490;29;20200;-93
2024/04/06 22:35:37;;;;;;;7.18;2.72;;;;;;;;;;4892592;29;20209;-93
2024/04/06 22:38:43;;;;;;;9.57;2.80;;;;;;;;;;4894935;29;20194;-93
2024/04/06 22:41:48;;;;;;;8.93;2.65;;;;;;;;;;4892684;29;20217;-90
2024/04/06 22:44:53;;;;;;;6.55;2.70;;;;;;;;;;4893563;29;20213;-94
2024/04/06 22:47:59;;;;;;;4.45;2.50;;;;;;;;;;4892729;29;20193;-94
2024/04/06 22:51:06;;;;;;;7.53;2.60;;;;;;;;;;4893242;29;20283;-95
2024/04/06 22:54:11;;;;;;;7.93;2.75;;;;;;;;;;4892696;29;20200;-94
2024/04/06 22:57:15;;;;;;;10.52;2.65;;;;;;;;;;4892296;29;20249;-93
2024/04/06 23:00:21;;;;;;;4.03;2.40;;;;;;;;;;4893062;29;20189;-93
2024/04/06 23:03:26;;;;;;;6.78;2.58;;;;;;;;;;4897032;29;20234;-93
2024/04/06 23:06:33;;;;;;;7.63;2.60;;;;;;;;;;4896037;29;20181;-93
2024/04/06 23:09:37;;;;;;;5.47;2.50;;;;;;;;;;4896254;29;20385;-94
2024/04/06 23:12:42;;;;;;;6.35;2.70;;;;;;;;;;4894144;29;20189;-92
2024/04/06 23:15:47;;;;;;;4.47;2.60;;;;;;;;;;4895528;29;20294;-93
2024/04/06 23:18:53;;;;;;;8.52;2.55;;;;;;;;;;4895064;29;20241;-93
2024/04/06 23:21:59;;;;;;;4.90;2.58;;;;;;;;;;4894955;29;20260;-93
2024/04/06 23:25:06;;;;;;;6.57;2.78;;;;;;;;;;4893620;29;20273;-92
2024/04/06 23:28:10;;;;;;;10.10;2.50;;;;;;;;;;4894095;29;20190;-92
2024/04/06 23:31:16;;;;;;;8.15;2.60;;;;;;;;;;4892932;29;20568;-95
2024/04/06 23:34:22;;;;;;;5.80;2.75;;;;;;;;;;4893721;29;20193;-93
2024/04/06 23:37:27;;;;;;;9.60;2.97;;;;;;;;;;4892414;29;20210;-93
2024/04/06 23:40:32;;;;;;;6.30;2.63;;;;;;;;;;4893323;29;20204;-93
2024/04/06 23:43:39;;;;;;;5.30;3.20;;;;;;;;;;4893336;29;20224;-93
2024/04/06 23:46:43;;;;;;;8.48;2.88;;;;;;;;;;4891969;29;20193;-94
2024/04/06 23:49:55;;;;;;;5.57;2.90;;;;;;;;;;4892203;29;20186;-93
2024/04/06 23:53:00;;;;;;;6.40;2.80;;;;;;;;;;4893805;29;20197;-93
2024/04/06 23:56:05;;;;;;;6.15;2.58;;;;;;;;;;4896288;29;20201;-94
2024/04/06 23:59:10;;;;;;;5.20;2.72;;;;;;;;;;4895125;29;20298;-93
